createdAt,value
2023-11-24T00:00:32.629Z,1.60
2023-11-24T00:03:19.775Z,1.70
2023-11-24T00:05:47.501Z,1.50
2023-11-24T00:08:14.214Z,1.30
2023-11-24T00:10:40.901Z,1.70
2023-11-24T00:13:07.686Z,1.40
2023-11-24T00:15:34.508Z,1.30
2023-11-24T00:18:02.475Z,1.60
2023-11-24T00:20:30.888Z,1.40
2023-11-24T00:22:57.784Z,2.00
2023-11-24T00:25:25.023Z,2.10
2023-11-24T00:27:52.779Z,2.40
2023-11-24T00:30:20.787Z,2.20
2023-11-24T00:32:48.202Z,2.00
2023-11-24T00:35:16.002Z,2.20
2023-11-24T00:37:43.049Z,2.10
2023-11-24T00:40:15.102Z,1.60
2023-11-24T00:42:42.618Z,1.50
2023-11-24T00:45:11.189Z,1.90
2023-11-24T00:47:38.080Z,1.80
2023-11-24T00:50:07.078Z,1.70
2023-11-24T00:52:34.195Z,1.90
2023-11-24T00:55:01.207Z,1.70
2023-11-24T00:57:28.283Z,2.30
2023-11-24T00:59:55.152Z,1.60
2023-11-24T01:02:21.937Z,1.90
2023-11-24T01:04:49.407Z,1.70
2023-11-24T01:07:16.479Z,2.10
2023-11-24T01:09:43.430Z,1.90
2023-11-24T01:12:11.044Z,1.80
2023-11-24T01:14:37.733Z,1.80
2023-11-24T01:17:04.598Z,2.10
2023-11-24T01:19:31.271Z,1.50
2023-11-24T01:21:58.257Z,1.90
2023-11-24T01:24:25.141Z,1.80
2023-11-24T01:26:52.294Z,1.70
2023-11-24T01:29:19.663Z,1.60
2023-11-24T01:31:47.208Z,2.40
2023-11-24T01:34:15.960Z,2.30
2023-11-24T01:36:44.064Z,2.30
2023-11-24T01:39:11.622Z,2.10
2023-11-24T01:41:38.559Z,2.20
2023-11-24T01:44:07.384Z,1.30
2023-11-24T01:46:34.891Z,0.90
2023-11-24T01:49:02.764Z,0.70
2023-11-24T01:51:31.546Z,0.60
2023-11-24T01:53:58.756Z,0.60
2023-11-24T01:56:25.935Z,0.60
2023-11-24T01:58:54.706Z,0.60
2023-11-24T02:01:23.479Z,1.00
2023-11-24T02:03:50.251Z,1.40
2023-11-24T02:06:17.194Z,1.00
2023-11-24T02:08:44.602Z,1.10
2023-11-24T02:11:11.581Z,1.20
2023-11-24T02:13:38.669Z,1.10
2023-11-24T02:16:05.809Z,1.20
2023-11-24T02:18:32.940Z,1.40
2023-11-24T02:21:02.049Z,1.30
2023-11-24T02:23:29.166Z,1.20
2023-11-24T02:25:55.956Z,1.10
2023-11-24T02:28:22.787Z,1.10
2023-11-24T02:30:49.741Z,1.20
2023-11-24T02:33:16.574Z,1.30
2023-11-24T02:35:44.059Z,1.60
2023-11-24T02:38:10.983Z,1.40
2023-11-24T02:40:38.305Z,1.20
2023-11-24T02:43:05.342Z,1.10
2023-11-24T02:45:32.253Z,1.20
2023-11-24T02:47:59.133Z,1.10
2023-11-24T02:50:26.110Z,1.50
2023-11-24T02:52:52.798Z,1.40
2023-11-24T02:55:19.745Z,1.70
2023-11-24T02:57:46.577Z,1.70
2023-11-24T03:00:15.172Z,1.80
2023-11-24T03:02:42.552Z,1.60
2023-11-24T03:05:10.200Z,1.50
2023-11-24T03:07:37.359Z,1.90
2023-11-24T03:10:05.077Z,1.80
2023-11-24T03:12:31.841Z,1.30
2023-11-24T03:14:59.398Z,1.80
2023-11-24T03:17:26.163Z,1.80
2023-11-24T03:19:52.909Z,1.80
2023-11-24T03:22:19.997Z,2.00
2023-11-24T03:24:46.703Z,2.00
2023-11-24T03:27:13.478Z,2.00
2023-11-24T03:29:41.630Z,1.60
2023-11-24T03:32:09.153Z,1.80
2023-11-24T03:34:37.498Z,1.70
2023-11-24T03:37:04.461Z,1.70
2023-11-24T03:39:31.317Z,2.20
2023-11-24T03:41:58.355Z,2.20
2023-11-24T03:44:25.079Z,2.40
2023-11-24T03:46:52.021Z,2.60
2023-11-24T03:49:18.745Z,1.80
2023-11-24T03:51:45.560Z,1.90
2023-11-24T03:54:12.330Z,1.90
2023-11-24T03:56:39.258Z,1.80
2023-11-24T03:59:06.774Z,1.60
2023-11-24T04:01:33.756Z,1.60
2023-11-24T04:04:01.521Z,1.90
2023-11-24T04:06:28.457Z,2.20
2023-11-24T04:08:55.432Z,2.50
2023-11-24T04:11:22.316Z,2.00
2023-11-24T04:13:49.198Z,2.40
2023-11-24T04:16:16.330Z,2.00
2023-11-24T04:18:43.934Z,1.90
2023-11-24T04:21:10.943Z,1.90
2023-11-24T04:23:37.719Z,2.10
2023-11-24T04:26:04.910Z,1.90
2023-11-24T04:28:32.043Z,2.10
2023-11-24T04:30:59.769Z,2.50
2023-11-24T04:33:26.746Z,2.00
2023-11-24T04:35:56.551Z,1.60
2023-11-24T04:38:23.451Z,1.80
2023-11-24T04:40:50.243Z,2.00
2023-11-24T04:43:16.932Z,1.70
2023-11-24T04:45:44.318Z,1.80
2023-11-24T04:48:13.689Z,1.80
2023-11-24T04:50:40.578Z,1.70
2023-11-24T04:53:07.306Z,1.70
2023-11-24T04:55:34.332Z,2.10
2023-11-24T04:58:01.018Z,2.00
2023-11-24T05:00:28.017Z,1.60
2023-11-24T05:02:54.898Z,1.50
2023-11-24T05:05:21.868Z,1.50
2023-11-24T05:07:48.743Z,1.70
2023-11-24T05:10:16.041Z,1.90
2023-11-24T05:12:43.215Z,1.90
2023-11-24T05:15:11.313Z,1.80
2023-11-24T05:17:39.687Z,2.20
2023-11-24T05:20:08.037Z,2.30
2023-11-24T05:22:34.781Z,2.00
2023-11-24T05:25:01.854Z,1.90
2023-11-24T05:27:28.818Z,1.50
2023-11-24T05:29:55.910Z,1.50
2023-11-24T05:32:22.981Z,1.60
2023-11-24T05:34:49.700Z,1.70
2023-11-24T05:37:16.483Z,1.50
2023-11-24T05:39:43.209Z,1.90
2023-11-24T05:42:10.226Z,2.30
2023-11-24T05:44:36.992Z,1.60
2023-11-24T05:47:06.110Z,1.90
2023-11-24T05:49:33.262Z,1.60
2023-11-24T05:52:00.100Z,1.60
2023-11-24T05:54:26.934Z,2.00
2023-11-24T05:56:53.632Z,2.20
2023-11-24T05:59:20.682Z,2.10
2023-11-24T06:01:49.046Z,2.20
2023-11-24T06:04:15.919Z,2.60
2023-11-24T06:06:42.785Z,2.40
2023-11-24T06:09:09.582Z,2.20
2023-11-24T06:11:36.272Z,2.40
2023-11-24T06:14:03.052Z,2.60
2023-11-24T06:16:29.811Z,2.30
2023-11-24T06:18:58.769Z,3.10
2023-11-24T06:21:27.060Z,2.90
2023-11-24T06:23:53.816Z,2.70
2023-11-24T06:26:20.581Z,2.40
2023-11-24T06:28:47.334Z,3.00
2023-11-24T06:31:17.326Z,2.50
2023-11-24T06:33:44.590Z,2.70
2023-11-24T06:36:12.519Z,2.50
2023-11-24T06:38:39.380Z,2.50
2023-11-24T06:41:09.330Z,3.40
2023-11-24T06:43:36.486Z,2.90
2023-11-24T06:46:04.353Z,2.90
2023-11-24T06:48:31.513Z,2.20
2023-11-24T06:50:58.336Z,2.40
2023-11-24T06:53:25.080Z,2.40
2023-11-24T06:55:51.806Z,2.50
2023-11-24T06:58:18.762Z,2.50
2023-11-24T07:00:45.558Z,2.80
2023-11-24T07:03:12.540Z,3.00
2023-11-24T07:05:39.302Z,2.40
2023-11-24T07:08:06.755Z,2.80
2023-11-24T07:10:33.738Z,2.60
2023-11-24T07:13:01.789Z,2.70
2023-11-24T07:15:28.843Z,2.50
2023-11-24T07:17:55.769Z,2.80
2023-11-24T07:20:23.143Z,3.10
2023-11-24T07:22:50.186Z,3.10
2023-11-24T07:25:17.338Z,2.80
2023-11-24T07:27:44.717Z,2.40
2023-11-24T07:30:13.633Z,3.20
2023-11-24T07:32:40.805Z,2.50
2023-11-24T07:35:10.170Z,2.70
2023-11-24T07:37:37.042Z,2.30
2023-11-24T07:40:09.116Z,2.70
2023-11-24T07:42:37.642Z,2.60
2023-11-24T07:45:05.171Z,3.00
2023-11-24T07:47:32.184Z,2.70
2023-11-24T07:49:59.087Z,2.60
2023-11-24T07:52:27.456Z,2.60
2023-11-24T07:54:54.753Z,2.60
2023-11-24T07:57:21.966Z,2.30
2023-11-24T07:59:48.740Z,3.00
2023-11-24T08:02:15.623Z,2.70
2023-11-24T08:04:42.523Z,2.60
2023-11-24T08:07:10.551Z,2.90
2023-11-24T08:09:38.116Z,3.10
2023-11-24T08:12:12.331Z,2.90
2023-11-24T08:14:40.660Z,3.20
2023-11-24T08:17:07.912Z,2.40
2023-11-24T08:19:34.619Z,3.10
2023-11-24T08:22:01.509Z,2.80
2023-11-24T08:24:28.466Z,2.80
2023-11-24T08:26:55.211Z,2.40
2023-11-24T08:29:22.789Z,3.20
2023-11-24T08:31:51.079Z,3.20
2023-11-24T08:34:19.188Z,3.40
2023-11-24T08:36:47.202Z,3.00
2023-11-24T08:39:14.977Z,3.00
2023-11-24T08:41:44.288Z,3.20
2023-11-24T08:44:11.246Z,2.80
2023-11-24T08:46:38.248Z,4.50
2023-11-24T08:49:06.960Z,2.80
2023-11-24T08:51:33.762Z,3.60
2023-11-24T08:54:00.766Z,4.00
2023-11-24T08:56:29.508Z,6.20
2023-11-24T08:58:56.365Z,4.10
2023-11-24T09:01:24.393Z,3.70
2023-11-24T09:03:51.780Z,3.40
2023-11-24T09:06:26.219Z,4.00
2023-11-24T09:08:52.962Z,4.30
2023-11-24T09:11:19.704Z,3.20
2023-11-24T09:13:49.469Z,3.00
2023-11-24T09:16:18.607Z,3.30
2023-11-24T09:18:47.059Z,3.10
2023-11-24T09:21:13.910Z,3.20
2023-11-24T09:23:41.079Z,2.70
2023-11-24T09:26:12.048Z,2.90
2023-11-24T09:28:38.976Z,3.20
2023-11-24T09:31:10.309Z,2.90
2023-11-24T09:33:37.990Z,2.90
2023-11-24T09:36:05.699Z,2.50
2023-11-24T09:38:35.296Z,2.80
2023-11-24T09:41:09.609Z,2.90
2023-11-24T09:43:37.178Z,2.90
2023-11-24T09:46:04.086Z,3.30
2023-11-24T09:48:33.265Z,3.60
2023-11-24T09:51:03.481Z,2.90
2023-11-24T09:53:35.487Z,2.30
2023-11-24T09:56:04.063Z,2.50
2023-11-24T09:58:31.476Z,2.60
2023-11-24T10:01:06.836Z,3.10
2023-11-24T10:03:35.455Z,2.70
2023-11-24T10:06:02.851Z,2.90
2023-11-24T10:08:29.634Z,2.60
2023-11-24T10:11:10.734Z,2.80
2023-11-24T10:13:38.403Z,2.70
2023-11-24T10:16:07.228Z,3.00
2023-11-24T10:18:33.971Z,3.10
2023-11-24T10:21:02.055Z,2.50
2023-11-24T10:23:32.087Z,2.50
2023-11-24T10:26:00.448Z,2.50
2023-11-24T10:28:27.981Z,2.10
2023-11-24T10:30:56.798Z,2.60
2023-11-24T10:33:35.128Z,3.50
2023-11-24T10:36:03.405Z,3.40
2023-11-24T10:38:33.541Z,2.30
2023-11-24T10:41:04.587Z,3.80
2023-11-24T10:43:35.241Z,4.00
2023-11-24T10:46:03.546Z,3.80
2023-11-24T10:48:55.194Z,2.90
2023-11-24T10:51:35.834Z,2.90
2023-11-24T10:54:06.093Z,2.00
2023-11-24T10:56:37.486Z,2.60
2023-11-24T10:59:09.785Z,2.30
2023-11-24T11:01:36.954Z,2.30
2023-11-24T11:04:05.739Z,2.50
2023-11-24T11:06:42.645Z,2.20
2023-11-24T11:09:20.927Z,2.30
2023-11-24T11:12:32.528Z,2.20
2023-11-24T11:14:59.485Z,2.40
2023-11-24T11:17:27.864Z,2.20
2023-11-24T11:20:02.020Z,1.70
2023-11-24T11:22:38.098Z,2.00
2023-11-24T11:25:40.181Z,2.10
2023-11-24T11:28:47.731Z,1.90
2023-11-24T11:31:29.262Z,2.10
2023-11-24T11:33:56.217Z,2.20
2023-11-24T11:36:26.874Z,2.10
2023-11-24T11:38:57.165Z,1.70
2023-11-24T11:41:42.628Z,2.30
2023-11-24T11:44:26.054Z,2.30
2023-11-24T11:47:25.534Z,1.90
2023-11-24T11:49:55.604Z,2.00
2023-11-24T11:52:25.555Z,2.10
2023-11-24T11:54:53.944Z,2.80
2023-11-24T11:57:22.971Z,2.80
2023-11-24T11:59:51.100Z,2.30
2023-11-24T12:02:21.489Z,2.30
2023-11-24T12:04:50.456Z,2.40
2023-11-24T12:07:20.502Z,2.30
2023-11-24T12:09:48.764Z,2.20
2023-11-24T12:12:15.784Z,2.20
2023-11-24T12:14:44.360Z,2.30
2023-11-24T12:17:13.481Z,2.60
2023-11-24T12:19:41.950Z,2.30
2023-11-24T12:22:11.218Z,1.90
2023-11-24T12:24:41.340Z,2.00
2023-11-24T12:27:09.819Z,4.30
2023-11-24T12:29:39.045Z,2.30
2023-11-24T12:32:11.299Z,1.80
2023-11-24T12:34:42.843Z,2.50
2023-11-24T12:37:10.814Z,2.00
2023-11-24T12:39:37.989Z,2.50
2023-11-24T12:42:08.153Z,2.70
2023-11-24T12:44:35.670Z,2.80
2023-11-24T12:47:14.918Z,2.40
2023-11-24T12:50:03.221Z,2.90
2023-11-24T12:52:31.730Z,2.50
2023-11-24T12:54:58.844Z,2.80
2023-11-24T12:57:26.563Z,2.50
2023-11-24T12:59:53.494Z,2.80
2023-11-24T13:02:21.658Z,3.20
2023-11-24T13:04:49.487Z,2.60
2023-11-24T13:07:18.220Z,2.40
2023-11-24T13:09:45.743Z,2.70
2023-11-24T13:12:18.410Z,2.30
2023-11-24T13:14:46.210Z,2.60
2023-11-24T13:17:13.307Z,3.30
2023-11-24T13:19:40.270Z,2.60
2023-11-24T13:22:10.695Z,2.30
2023-11-24T13:24:37.975Z,3.00
2023-11-24T13:27:05.224Z,3.20
2023-11-24T13:29:32.092Z,3.30
2023-11-24T13:31:59.740Z,3.30
2023-11-24T13:34:26.904Z,3.50
2023-11-24T13:36:56.173Z,3.40
2023-11-24T13:39:24.769Z,3.30
2023-11-24T13:41:52.949Z,3.90
2023-11-24T13:44:21.844Z,3.20
2023-11-24T13:46:49.330Z,3.50
2023-11-24T13:49:18.136Z,3.80
2023-11-24T13:51:45.546Z,3.50
2023-11-24T13:54:13.342Z,3.60
2023-11-24T13:56:42.207Z,3.90
2023-11-24T13:59:13.735Z,4.00
2023-11-24T14:01:41.415Z,3.60
2023-11-24T14:04:12.363Z,3.80
2023-11-24T14:06:39.702Z,3.70
2023-11-24T14:09:12.586Z,4.40
2023-11-24T14:11:39.586Z,4.20
2023-11-24T14:14:07.538Z,3.80
2023-11-24T14:16:34.358Z,3.80
2023-11-24T14:19:02.500Z,3.40
2023-11-24T14:21:29.419Z,2.80
2023-11-24T14:23:57.360Z,2.40
2023-11-24T14:26:26.679Z,2.20
2023-11-24T14:28:53.503Z,2.20
2023-11-24T14:31:20.435Z,2.20
2023-11-24T14:33:49.069Z,2.10
2023-11-24T14:36:15.968Z,2.70
2023-11-24T14:38:43.139Z,3.00
2023-11-24T14:41:10.196Z,3.30
2023-11-24T14:43:38.759Z,2.90
2023-11-24T14:46:05.773Z,2.70
2023-11-24T14:48:32.667Z,2.90
2023-11-24T14:50:59.665Z,3.00
2023-11-24T14:53:26.570Z,3.10
2023-11-24T14:55:53.407Z,3.10
2023-11-24T14:58:20.658Z,3.70
2023-11-24T15:00:47.571Z,3.40
2023-11-24T15:03:16.770Z,3.40
2023-11-24T15:05:53.341Z,6.20
2023-11-24T15:10:47.615Z,4.70
2023-11-24T15:13:22.676Z,4.90
2023-11-24T15:15:50.550Z,5.30
2023-11-24T15:18:21.070Z,4.60
2023-11-24T15:20:49.669Z,4.80
2023-11-24T15:23:16.660Z,4.80
2023-11-24T15:25:51.736Z,4.50
2023-11-24T15:28:23.045Z,3.90
2023-11-24T15:30:50.243Z,4.10
2023-11-24T15:33:19.346Z,4.10
2023-11-24T15:35:48.549Z,4.40
2023-11-24T15:38:21.209Z,4.40
2023-11-24T15:40:52.054Z,5.20
2023-11-24T15:43:20.457Z,4.50
2023-11-24T15:45:51.912Z,4.10
2023-11-24T15:48:18.891Z,4.30
2023-11-24T15:50:46.373Z,4.90
2023-11-24T15:53:14.744Z,5.00
2023-11-24T15:55:46.051Z,4.10
2023-11-24T15:58:14.786Z,3.60
2023-11-24T16:00:44.166Z,3.50
2023-11-24T16:03:15.463Z,3.40
2023-11-24T16:05:50.109Z,3.40
2023-11-24T16:08:17.905Z,3.10
2023-11-24T16:10:47.842Z,3.10
2023-11-24T16:13:15.067Z,2.60
2023-11-24T16:15:42.564Z,2.70
2023-11-24T16:18:10.794Z,2.60
2023-11-24T16:20:38.513Z,2.70
2023-11-24T16:23:06.961Z,3.20
2023-11-24T16:25:36.854Z,3.10
2023-11-24T16:28:08.227Z,2.70
2023-11-24T16:30:35.014Z,3.00
2023-11-24T16:33:01.953Z,2.80
2023-11-24T16:35:29.034Z,3.30
2023-11-24T16:37:55.988Z,3.50
2023-11-24T16:40:22.967Z,3.40
2023-11-24T16:42:49.905Z,3.30
2023-11-24T16:45:16.752Z,3.00
2023-11-24T16:47:44.568Z,4.00
2023-11-24T16:50:12.709Z,3.50
2023-11-24T16:52:46.428Z,3.80
2023-11-24T16:55:14.428Z,3.20
2023-11-24T16:57:41.201Z,3.60
2023-11-24T17:00:10.514Z,4.10
2023-11-24T17:02:37.624Z,4.00
2023-11-24T17:05:04.915Z,3.70
2023-11-24T17:07:32.197Z,3.10
2023-11-24T17:09:59.116Z,3.60
2023-11-24T17:12:27.031Z,4.40
2023-11-24T17:14:55.060Z,4.10
2023-11-24T17:17:22.591Z,4.50
2023-11-24T17:19:49.699Z,4.30
2023-11-24T17:22:16.823Z,5.00
2023-11-24T17:24:43.624Z,5.30
2023-11-24T17:27:10.574Z,5.10
2023-11-24T17:29:37.437Z,4.40
2023-11-24T17:32:06.224Z,4.90
2023-11-24T17:34:33.111Z,4.30
2023-11-24T17:36:59.938Z,5.10
2023-11-24T17:39:28.297Z,4.90
2023-11-24T17:41:55.404Z,4.20
2023-11-24T17:44:22.136Z,4.80
2023-11-24T17:46:50.119Z,4.20
2023-11-24T17:49:16.955Z,5.40
2023-11-24T17:51:43.849Z,5.80
2023-11-24T17:54:11.683Z,6.30
2023-11-24T17:56:38.502Z,6.60
2023-11-24T17:59:06.793Z,7.30
2023-11-24T18:01:35.431Z,8.20
2023-11-24T18:04:02.500Z,8.90
2023-11-24T18:06:30.639Z,9.50
2023-11-24T18:08:58.737Z,10.60
2023-11-24T18:11:26.863Z,10.10
2023-11-24T18:13:53.690Z,10.70
2023-11-24T18:16:21.250Z,11.90
2023-11-24T18:18:48.086Z,11.70
2023-11-24T18:21:15.277Z,12.50
2023-11-24T18:23:42.078Z,12.60
2023-11-24T18:26:11.685Z,12.40
2023-11-24T18:28:38.469Z,11.60
2023-11-24T18:31:05.725Z,12.10
2023-11-24T18:33:32.844Z,12.10
2023-11-24T18:35:59.609Z,11.30
2023-11-24T18:38:26.730Z,10.90
2023-11-24T18:40:53.934Z,10.40
2023-11-24T18:43:30.584Z,10.40
2023-11-24T18:46:04.073Z,11.00
2023-11-24T18:48:31.567Z,11.20
2023-11-24T18:50:58.410Z,10.70
2023-11-24T18:53:27.608Z,11.30
2023-11-24T18:55:54.448Z,10.60
2023-11-24T18:58:21.326Z,10.00
2023-11-24T19:00:48.475Z,11.20
2023-11-24T19:03:15.344Z,9.90
2023-11-24T19:05:42.541Z,10.00
2023-11-24T19:08:09.795Z,9.80
2023-11-24T19:10:37.493Z,9.80
2023-11-24T19:13:04.356Z,9.60
2023-11-24T19:15:31.212Z,10.30
2023-11-24T19:17:58.151Z,11.20
2023-11-24T19:20:24.919Z,11.10
2023-11-24T19:22:51.963Z,10.50
2023-11-24T19:25:19.791Z,9.90
2023-11-24T19:27:46.674Z,10.40
2023-11-24T19:30:14.844Z,10.90
2023-11-24T19:32:41.706Z,10.30
2023-11-24T19:35:10.037Z,10.80
2023-11-24T19:37:36.939Z,10.10
2023-11-24T19:40:07.400Z,10.40
2023-11-24T19:42:34.527Z,10.00
2023-11-24T19:45:01.403Z,9.90
2023-11-24T19:47:28.690Z,9.70
2023-11-24T19:49:55.789Z,10.00
2023-11-24T19:52:22.581Z,9.60
2023-11-24T19:54:49.392Z,10.20
2023-11-24T19:57:17.410Z,9.30
2023-11-24T19:59:44.191Z,9.80
2023-11-24T20:02:13.305Z,9.70
2023-11-24T20:04:41.187Z,9.80
2023-11-24T20:07:09.031Z,9.90
2023-11-24T20:09:37.809Z,9.80
2023-11-24T20:12:04.925Z,9.80
2023-11-24T20:14:31.936Z,9.70
2023-11-24T20:16:58.755Z,9.50
2023-11-24T20:19:25.753Z,10.40
2023-11-24T20:21:53.199Z,10.90
2023-11-24T20:24:19.936Z,10.90
2023-11-24T20:26:46.950Z,10.30
2023-11-24T20:29:13.771Z,9.50
2023-11-24T20:31:41.911Z,9.30
2023-11-24T20:34:09.180Z,9.30
2023-11-24T20:36:36.339Z,9.40
2023-11-24T20:39:03.822Z,9.60
2023-11-24T20:41:31.961Z,9.00
2023-11-24T20:43:58.724Z,9.40
2023-11-24T20:46:25.824Z,9.30
2023-11-24T20:48:52.688Z,9.90
2023-11-24T20:51:19.567Z,9.90
2023-11-24T20:53:46.425Z,9.50
2023-11-24T20:56:13.429Z,8.90
2023-11-24T20:58:40.301Z,9.70
2023-11-24T21:01:07.400Z,9.50
2023-11-24T21:03:34.755Z,8.80
2023-11-24T21:06:01.702Z,8.90
2023-11-24T21:08:29.147Z,9.00
2023-11-24T21:10:55.979Z,8.50
2023-11-24T21:13:23.776Z,8.40
2023-11-24T21:15:50.679Z,7.70
2023-11-24T21:18:17.764Z,7.30
2023-11-24T21:20:45.374Z,7.60
2023-11-24T21:23:13.185Z,7.60
2023-11-24T21:25:41.395Z,6.90
2023-11-24T21:28:09.143Z,6.80
2023-11-24T21:30:35.913Z,7.00
2023-11-24T21:33:03.033Z,6.50
2023-11-24T21:35:32.159Z,5.90
2023-11-24T21:37:59.044Z,5.10
2023-11-24T21:40:26.448Z,5.20
2023-11-24T21:42:53.770Z,4.80
2023-11-24T21:45:20.793Z,4.80
2023-11-24T21:47:48.076Z,4.40
2023-11-24T21:50:15.589Z,4.70
2023-11-24T21:52:42.729Z,4.90
2023-11-24T21:55:11.092Z,4.90
2023-11-24T21:57:37.922Z,4.80
2023-11-24T22:00:06.548Z,5.10
2023-11-24T22:02:38.285Z,3.90
2023-11-24T22:05:10.614Z,4.30
2023-11-24T22:07:38.846Z,4.60
2023-11-24T22:10:07.012Z,4.00
2023-11-24T22:12:37.372Z,4.10
2023-11-24T22:15:06.001Z,4.30
2023-11-24T22:17:33.965Z,5.10
2023-11-24T22:20:01.690Z,5.20
2023-11-24T22:22:28.819Z,5.50
2023-11-24T22:24:55.731Z,6.00
2023-11-24T22:27:22.707Z,6.10
2023-11-24T22:29:58.013Z,6.00
2023-11-24T22:32:30.974Z,5.20
2023-11-24T22:34:57.780Z,6.10
2023-11-24T22:37:24.843Z,5.20
2023-11-24T22:39:51.562Z,6.10
2023-11-24T22:42:18.632Z,5.10
2023-11-24T22:44:46.883Z,5.30
2023-11-24T22:47:15.953Z,5.00
2023-11-24T22:49:42.932Z,5.00
2023-11-24T22:52:10.203Z,4.50
2023-11-24T22:54:37.156Z,4.10
2023-11-24T22:57:03.928Z,4.90
2023-11-24T22:59:30.719Z,4.40
2023-11-24T23:01:58.053Z,4.60
2023-11-24T23:04:25.746Z,4.70
2023-11-24T23:06:52.526Z,4.60
2023-11-24T23:09:21.266Z,4.80
2023-11-24T23:11:48.088Z,4.50
2023-11-24T23:14:15.389Z,4.40
2023-11-24T23:16:42.613Z,5.20
2023-11-24T23:19:10.224Z,4.80
2023-11-24T23:21:37.711Z,5.10
2023-11-24T23:24:05.221Z,5.10
2023-11-24T23:26:31.936Z,5.00
2023-11-24T23:28:58.666Z,6.80
2023-11-24T23:31:28.659Z,6.30
2023-11-24T23:33:56.083Z,6.30
2023-11-24T23:36:24.173Z,5.40
2023-11-24T23:38:51.508Z,5.10
2023-11-24T23:41:18.619Z,5.50
2023-11-24T23:43:45.427Z,4.90
2023-11-24T23:46:12.404Z,4.80
2023-11-24T23:48:39.348Z,4.50
2023-11-24T23:51:07.512Z,4.60
2023-11-24T23:53:34.561Z,4.70
2023-11-24T23:56:02.015Z,4.70
2023-11-24T23:58:29.577Z,5.10
